createdAt,value
2019-01-22T00:01:17.257Z,-4.58
2019-01-22T00:03:46.816Z,-4.60
2019-01-22T00:06:16.887Z,-4.61
2019-01-22T00:08:46.436Z,-4.63
2019-01-22T00:11:16.083Z,-4.65
2019-01-22T00:13:45.651Z,-4.64
2019-01-22T00:16:15.235Z,-4.67
2019-01-22T00:18:44.798Z,-4.69
2019-01-22T00:21:14.448Z,-4.71
2019-01-22T00:23:44.013Z,-4.71
2019-01-22T00:26:13.591Z,-4.69
2019-01-22T00:28:43.150Z,-4.69
2019-01-22T00:31:12.717Z,-4.70
2019-01-22T00:33:42.309Z,-4.69
2019-01-22T00:36:11.969Z,-4.70
2019-01-22T00:38:41.507Z,-4.72
2019-01-22T00:41:11.070Z,-4.72
2019-01-22T00:43:40.656Z,-4.72
2019-01-22T00:46:10.565Z,-4.73
2019-01-22T00:48:40.218Z,-4.73
2019-01-22T00:51:09.802Z,-4.72
2019-01-22T00:53:39.357Z,-4.73
2019-01-22T00:56:08.990Z,-4.74
2019-01-22T00:58:39.042Z,-4.76
2019-01-22T01:01:08.665Z,-4.77
2019-01-22T01:03:38.247Z,-4.78
2019-01-22T01:06:08.050Z,-4.80
2019-01-22T01:08:37.627Z,-4.81
2019-01-22T01:11:07.254Z,-4.83
2019-01-22T01:13:36.841Z,-4.81
2019-01-22T01:16:06.624Z,-4.82
2019-01-22T01:18:36.288Z,-4.80
2019-01-22T01:21:05.818Z,-4.79
2019-01-22T01:23:35.430Z,-4.78
2019-01-22T01:26:05.237Z,-4.78
2019-01-22T01:28:34.823Z,-4.77
2019-01-22T01:31:04.446Z,-4.76
2019-01-22T01:33:34.037Z,-4.73
2019-01-22T01:36:03.586Z,-4.69
2019-01-22T01:38:33.653Z,-4.64
2019-01-22T01:41:03.208Z,-4.59
2019-01-22T01:43:32.790Z,-4.55
2019-01-22T01:46:02.411Z,-4.53
2019-01-22T01:48:31.999Z,-4.52
2019-01-22T01:51:01.565Z,-4.53
2019-01-22T01:53:31.144Z,-4.58
2019-01-22T01:56:00.692Z,-4.57
2019-01-22T01:58:30.277Z,-4.56
2019-01-22T02:01:00.071Z,-4.59
2019-01-22T02:03:29.667Z,-4.64
2019-01-22T02:05:59.502Z,-4.68
2019-01-22T02:08:29.083Z,-4.73
2019-01-22T02:10:58.654Z,-4.75
2019-01-22T02:13:28.394Z,-4.78
2019-01-22T02:16:02.658Z,-4.79
2019-01-22T02:18:57.952Z,-4.79
2019-01-22T02:22:10.256Z,-4.78
2019-01-22T02:25:05.660Z,-4.76
2019-01-22T02:27:40.206Z,-4.74
2019-01-22T02:30:29.721Z,-4.67
2019-01-22T02:33:34.575Z,-4.59
2019-01-22T02:36:43.740Z,-4.51
2019-01-22T02:39:32.780Z,-4.40
2019-01-22T02:42:10.099Z,-4.31
2019-01-22T02:45:08.634Z,-4.21
2019-01-22T02:47:54.834Z,-4.12
2019-01-22T02:50:37.725Z,-3.99
2019-01-22T02:53:14.888Z,-3.89
2019-01-22T02:55:57.798Z,-3.82
2019-01-22T02:58:47.091Z,-3.76
2019-01-22T03:01:39.553Z,-3.71
2019-01-22T03:04:22.320Z,-3.68
2019-01-22T03:07:05.740Z,-3.68
2019-01-22T03:09:48.864Z,-3.68
2019-01-22T03:12:41.402Z,-3.68
2019-01-22T03:15:47.489Z,-3.65
2019-01-22T03:18:33.503Z,-3.63
2019-01-22T03:21:48.825Z,-3.63
2019-01-22T03:24:49.904Z,-3.62
2019-01-22T03:27:26.946Z,-3.61
2019-01-22T03:30:33.028Z,-3.61
2019-01-22T03:33:15.438Z,-3.64
2019-01-22T03:36:32.799Z,-3.67
2019-01-22T03:39:22.042Z,-3.73
2019-01-22T03:42:16.707Z,-3.85
2019-01-22T03:45:23.139Z,-3.97
2019-01-22T03:48:03.055Z,-4.04
2019-01-22T03:50:58.704Z,-4.10
2019-01-22T03:53:54.010Z,-4.15
2019-01-22T03:56:34.000Z,-4.21
2019-01-22T03:59:03.554Z,-4.27
2019-01-22T04:01:33.456Z,-4.24
2019-01-22T04:04:03.388Z,-4.21
2019-01-22T04:06:32.940Z,-4.15
2019-01-22T04:09:06.556Z,-4.13
2019-01-22T04:11:36.341Z,-4.12
2019-01-22T04:14:06.138Z,-4.08
2019-01-22T04:16:36.048Z,-3.98
2019-01-22T04:19:05.877Z,-3.87
2019-01-22T04:21:36.037Z,-3.77
2019-01-22T04:24:31.257Z,-3.68
2019-01-22T04:27:20.535Z,-3.59
2019-01-22T04:30:28.305Z,-3.51
2019-01-22T04:33:43.375Z,-3.45
2019-01-22T04:36:32.367Z,-3.34
2019-01-22T04:39:23.468Z,-3.32
2019-01-22T04:42:03.907Z,-3.28
2019-01-22T04:44:50.255Z,-3.21
2019-01-22T04:47:42.621Z,-3.17
2019-01-22T04:50:22.198Z,-3.12
2019-01-22T04:53:11.517Z,-3.09
2019-01-22T04:55:57.805Z,-3.07
2019-01-22T04:58:44.236Z,-3.07
2019-01-22T05:01:32.781Z,-3.05
2019-01-22T05:04:28.457Z,-3.04
2019-01-22T05:07:24.666Z,-3.02
2019-01-22T05:10:24.368Z,-3.01
2019-01-22T05:13:15.429Z,-2.99
2019-01-22T05:16:12.491Z,-2.97
2019-01-22T05:18:52.103Z,-2.98
2019-01-22T05:21:35.420Z,-3.01
2019-01-22T05:24:30.891Z,-3.06
2019-01-22T05:27:32.536Z,-3.11
2019-01-22T05:30:28.933Z,-3.14
2019-01-22T05:33:21.325Z,-3.15
2019-01-22T05:36:24.564Z,-3.16
2019-01-22T05:39:13.393Z,-3.16
2019-01-22T05:42:04.029Z,-3.20
2019-01-22T05:44:53.209Z,-3.22
2019-01-22T05:47:36.060Z,-3.25
2019-01-22T05:50:43.462Z,-3.25
2019-01-22T05:53:35.675Z,-3.26
2019-01-22T05:56:18.045Z,-3.28
2019-01-22T05:59:11.761Z,-3.32
2019-01-22T06:01:54.913Z,-3.34
2019-01-22T06:05:06.673Z,-3.38
2019-01-22T06:08:09.630Z,-3.44
2019-01-22T06:11:14.146Z,-3.46
2019-01-22T06:13:54.226Z,-3.49
2019-01-22T06:16:48.272Z,-3.49
2019-01-22T06:19:28.816Z,-3.49
2019-01-22T06:22:42.391Z,-3.49
2019-01-22T06:25:34.529Z,-3.51
2019-01-22T06:28:32.513Z,-3.48
2019-01-22T06:31:21.698Z,-3.47
2019-01-22T06:33:58.918Z,-3.45
2019-01-22T06:37:06.906Z,-3.43
2019-01-22T06:39:43.807Z,-3.41
2019-01-22T06:42:21.016Z,-3.41
2019-01-22T06:45:14.709Z,-3.38
2019-01-22T06:48:16.869Z,-3.35
2019-01-22T06:51:25.409Z,-3.33
2019-01-22T06:54:08.407Z,-3.34
2019-01-22T06:56:51.489Z,-3.35
2019-01-22T06:59:38.201Z,-3.37
2019-01-22T07:02:18.366Z,-3.38
2019-01-22T07:05:40.407Z,-3.37
2019-01-22T07:08:23.323Z,-3.34
2019-01-22T07:11:28.241Z,-3.30
2019-01-22T07:14:27.941Z,-3.28
2019-01-22T07:17:07.869Z,-3.25
2019-01-22T07:20:09.296Z,-3.22
2019-01-22T07:22:49.122Z,-3.21
2019-01-22T07:25:41.365Z,-3.20
2019-01-22T07:28:30.539Z,-3.18
2019-01-22T07:31:16.945Z,-3.18
2019-01-22T07:34:18.301Z,-3.19
2019-01-22T07:37:16.739Z,-3.15
2019-01-22T07:40:02.846Z,-3.12
2019-01-22T07:42:45.913Z,-3.09
2019-01-22T07:45:48.186Z,-3.03
2019-01-22T07:48:22.446Z,-2.93
2019-01-22T07:51:15.228Z,-2.82
2019-01-22T07:53:52.173Z,-2.78
2019-01-22T07:56:29.002Z,-2.72
2019-01-22T07:59:12.060Z,-2.69
2019-01-22T08:02:01.374Z,-2.67
2019-01-22T08:05:04.577Z,-2.65
2019-01-22T08:08:18.416Z,-2.61
2019-01-22T08:11:19.357Z,-2.54
2019-01-22T08:13:59.393Z,-2.43
2019-01-22T08:16:59.505Z,-2.39
2019-01-22T08:20:02.841Z,-2.32
2019-01-22T08:23:02.912Z,-2.23
2019-01-22T08:25:57.663Z,-2.16
2019-01-22T08:29:06.864Z,-2.10
2019-01-22T08:31:52.526Z,-2.09
2019-01-22T08:34:41.051Z,-2.07
2019-01-22T08:37:54.927Z,-2.07
2019-01-22T08:40:38.044Z,-2.06
2019-01-22T08:43:30.264Z,-2.01
2019-01-22T08:46:10.402Z,-1.93
2019-01-22T08:49:05.570Z,-1.81
2019-01-22T08:51:51.536Z,-1.72
2019-01-22T08:55:00.527Z,-1.62
2019-01-22T08:57:59.090Z,-1.62
2019-01-22T09:00:45.287Z,-1.66
2019-01-22T09:03:40.453Z,-1.61
2019-01-22T09:06:19.884Z,-1.40
2019-01-22T09:09:00.045Z,-1.22
2019-01-22T09:11:43.319Z,-1.05
2019-01-22T09:14:37.946Z,-0.90
2019-01-22T09:17:30.517Z,-0.84
2019-01-22T09:20:13.972Z,-0.72
2019-01-22T09:22:50.776Z,-0.57
2019-01-22T09:25:37.002Z,-0.44
2019-01-22T09:28:13.960Z,-0.43
2019-01-22T09:31:09.270Z,-0.42
2019-01-22T09:33:52.115Z,0.06
2019-01-22T09:36:29.199Z,0.77
2019-01-22T09:38:59.282Z,1.61
2019-01-22T09:41:28.890Z,2.57
2019-01-22T09:43:58.440Z,3.27
2019-01-22T09:46:28.019Z,3.98
2019-01-22T09:48:57.562Z,4.63
2019-01-22T09:51:27.273Z,5.24
2019-01-22T09:53:56.829Z,5.63
2019-01-22T09:56:26.402Z,5.80
2019-01-22T09:58:55.952Z,6.02
2019-01-22T10:01:25.599Z,6.38
2019-01-22T10:03:55.142Z,6.54
2019-01-22T10:06:26.041Z,6.32
2019-01-22T10:08:55.748Z,6.14
2019-01-22T10:11:25.442Z,6.22
2019-01-22T10:13:55.054Z,6.52
2019-01-22T10:16:24.689Z,6.46
2019-01-22T10:18:54.244Z,6.34
2019-01-22T10:21:23.820Z,6.35
2019-01-22T10:23:53.395Z,6.30
2019-01-22T10:26:22.981Z,5.95
2019-01-22T10:28:52.529Z,5.66
2019-01-22T10:31:22.110Z,5.61
2019-01-22T10:33:51.033Z,5.48
2019-01-22T10:36:20.966Z,5.20
2019-01-22T10:38:49.756Z,4.99
2019-01-22T10:41:19.478Z,4.85
2019-01-22T10:43:49.151Z,4.71
2019-01-22T10:46:17.873Z,4.51
2019-01-22T10:48:47.553Z,4.22
2019-01-22T10:51:16.359Z,3.71
2019-01-22T10:53:45.127Z,3.25
2019-01-22T10:56:15.151Z,2.96
2019-01-22T10:58:44.727Z,2.87
2019-01-22T11:01:14.434Z,2.91
2019-01-22T11:03:43.322Z,2.87
2019-01-22T11:06:12.093Z,2.75
2019-01-22T11:08:40.854Z,2.66
2019-01-22T11:11:09.795Z,2.57
2019-01-22T11:13:38.571Z,2.35
2019-01-22T11:16:07.348Z,2.22
2019-01-22T11:18:36.133Z,2.08
2019-01-22T11:21:05.075Z,1.90
2019-01-22T11:23:33.841Z,1.73
2019-01-22T11:26:02.633Z,1.47
2019-01-22T11:28:31.534Z,1.30
2019-01-22T11:31:01.209Z,1.10
2019-01-22T11:33:33.444Z,0.88
2019-01-22T11:36:02.585Z,0.65
2019-01-22T11:38:32.213Z,0.47
2019-01-22T11:41:01.804Z,0.35
2019-01-22T11:43:31.462Z,0.22
2019-01-22T11:46:01.079Z,0.09
2019-01-22T11:48:30.723Z,-0.01
2019-01-22T11:51:00.274Z,-0.06
2019-01-22T11:53:29.840Z,-0.09
2019-01-22T11:55:59.516Z,-0.13
2019-01-22T11:58:29.218Z,-0.20
2019-01-22T12:00:58.770Z,-0.24
2019-01-22T12:03:28.466Z,-0.28
2019-01-22T12:05:58.020Z,-0.30
2019-01-22T12:08:27.993Z,-0.31
2019-01-22T12:10:57.613Z,-0.30
2019-01-22T12:13:27.302Z,-0.32
2019-01-22T12:15:56.867Z,-0.32
2019-01-22T12:18:26.628Z,-0.30
2019-01-22T12:20:56.276Z,-0.29
2019-01-22T12:23:25.818Z,-0.27
2019-01-22T12:25:57.363Z,-0.29
2019-01-22T12:28:26.827Z,-0.30
2019-01-22T12:30:56.525Z,-0.30
2019-01-22T12:33:26.113Z,-0.29
2019-01-22T12:35:55.667Z,-0.27
2019-01-22T12:38:25.241Z,-0.24
2019-01-22T12:40:54.988Z,-0.23
2019-01-22T12:43:24.586Z,-0.22
2019-01-22T12:45:54.195Z,-0.21
2019-01-22T12:48:23.838Z,-0.19
2019-01-22T12:50:53.396Z,-0.16
2019-01-22T12:53:22.997Z,-0.14
2019-01-22T12:55:52.806Z,-0.11
2019-01-22T12:58:22.379Z,-0.09
2019-01-22T13:00:51.920Z,-0.07
2019-01-22T13:03:21.516Z,-0.06
2019-01-22T13:05:55.587Z,-0.06
2019-01-22T13:08:25.155Z,-0.07
2019-01-22T13:10:55.074Z,-0.07
2019-01-22T13:13:24.680Z,-0.07
2019-01-22T13:15:54.619Z,-0.07
2019-01-22T13:18:24.273Z,-0.07
2019-01-22T13:20:54.000Z,-0.09
2019-01-22T13:23:23.566Z,-0.10
2019-01-22T13:25:53.224Z,-0.12
2019-01-22T13:28:22.842Z,-0.13
2019-01-22T13:30:52.507Z,-0.14
2019-01-22T13:33:22.073Z,-0.14
2019-01-22T13:35:52.199Z,-0.11
2019-01-22T13:38:21.051Z,-0.11
2019-01-22T13:40:50.644Z,-0.10
2019-01-22T13:43:20.304Z,-0.10
2019-01-22T13:45:52.665Z,-0.09
2019-01-22T13:48:22.507Z,-0.09
2019-01-22T13:50:52.084Z,-0.11
2019-01-22T13:53:21.731Z,-0.14
2019-01-22T13:55:51.664Z,-0.17
2019-01-22T13:58:21.277Z,-0.19
2019-01-22T14:00:50.874Z,-0.21
2019-01-22T14:03:19.692Z,-0.23
2019-01-22T14:05:49.302Z,-0.25
2019-01-22T14:08:18.868Z,-0.25
2019-01-22T14:10:48.461Z,-0.26
2019-01-22T14:13:18.018Z,-0.26
2019-01-22T14:15:47.650Z,-0.28
2019-01-22T14:18:17.403Z,-0.29
2019-01-22T14:20:46.963Z,-0.30
2019-01-22T14:23:16.574Z,-0.34
2019-01-22T14:25:46.140Z,-0.37
2019-01-22T14:28:15.810Z,-0.38
2019-01-22T14:30:45.499Z,-0.39
2019-01-22T14:33:15.088Z,-0.41
2019-01-22T14:35:44.662Z,-0.44
2019-01-22T14:38:14.250Z,-0.45
2019-01-22T14:40:43.795Z,-0.46
2019-01-22T14:43:13.369Z,-0.50
2019-01-22T14:45:43.015Z,-0.52
2019-01-22T14:48:12.673Z,-0.55
2019-01-22T14:50:42.270Z,-0.58
2019-01-22T14:53:11.890Z,-0.61
2019-01-22T14:55:41.439Z,-0.65
2019-01-22T14:58:11.156Z,-0.68
2019-01-22T15:00:42.250Z,-0.72
2019-01-22T15:03:11.860Z,-0.75
2019-01-22T15:05:41.478Z,-0.80
2019-01-22T15:08:11.066Z,-0.82
2019-01-22T15:10:40.698Z,-0.87
2019-01-22T15:13:10.386Z,-0.90
2019-01-22T15:15:39.936Z,-0.93
2019-01-22T15:18:09.540Z,-0.96
2019-01-22T15:20:39.101Z,-0.99
2019-01-22T15:23:08.728Z,-1.02
2019-01-22T15:25:38.243Z,-1.02
2019-01-22T15:28:08.002Z,-1.05
2019-01-22T15:30:38.039Z,-1.08
2019-01-22T15:33:07.955Z,-1.13
2019-01-22T15:35:37.510Z,-1.14
2019-01-22T15:38:07.263Z,-1.17
2019-01-22T15:40:36.773Z,-1.23
2019-01-22T15:43:06.492Z,-1.27
2019-01-22T15:45:36.126Z,-1.32
2019-01-22T15:48:05.825Z,-1.34
2019-01-22T15:50:35.414Z,-1.37
2019-01-22T15:53:05.326Z,-1.39
2019-01-22T15:55:36.325Z,-1.44
2019-01-22T15:58:06.238Z,-1.49
2019-01-22T16:00:36.030Z,-1.52
2019-01-22T16:03:07.113Z,-1.55
2019-01-22T16:05:36.839Z,-1.59
2019-01-22T16:08:06.681Z,-1.63
2019-01-22T16:10:36.447Z,-1.63
2019-01-22T16:13:06.226Z,-1.64
2019-01-22T16:15:35.940Z,-1.64
2019-01-22T16:18:05.953Z,-1.67
2019-01-22T16:20:35.533Z,-1.69
2019-01-22T16:23:05.266Z,-1.72
2019-01-22T16:25:35.039Z,-1.75
2019-01-22T16:28:04.636Z,-1.78
2019-01-22T16:30:34.212Z,-1.80
2019-01-22T16:33:03.778Z,-1.81
2019-01-22T16:35:33.368Z,-1.82
2019-01-22T16:38:02.929Z,-1.85
2019-01-22T16:40:32.686Z,-1.86
2019-01-22T16:43:02.257Z,-1.88
2019-01-22T16:45:35.704Z,-1.89
2019-01-22T16:48:05.402Z,-1.91
2019-01-22T16:50:35.482Z,-1.91
2019-01-22T16:53:07.236Z,-1.92
2019-01-22T16:55:40.091Z,-1.96
2019-01-22T16:58:09.820Z,-1.99
2019-01-22T17:00:39.535Z,-2.02
2019-01-22T17:03:10.224Z,-2.05
2019-01-22T17:05:40.114Z,-2.09
2019-01-22T17:08:09.756Z,-2.14
2019-01-22T17:10:39.402Z,-2.19
2019-01-22T17:13:08.959Z,-2.20
2019-01-22T17:15:38.763Z,-2.20
2019-01-22T17:18:09.124Z,-2.22
2019-01-22T17:20:40.043Z,-2.23
2019-01-22T17:23:09.745Z,-2.24
2019-01-22T17:25:39.358Z,-2.24
2019-01-22T17:28:08.985Z,-2.28
2019-01-22T17:30:38.557Z,-2.29
2019-01-22T17:33:10.440Z,-2.33
2019-01-22T17:35:41.690Z,-2.35
2019-01-22T17:38:11.271Z,-2.39
2019-01-22T17:40:40.902Z,-2.43
2019-01-22T17:43:10.546Z,-2.44
2019-01-22T17:45:40.097Z,-2.46
2019-01-22T17:48:10.000Z,-2.49
2019-01-22T17:50:39.715Z,-2.55
2019-01-22T17:53:09.360Z,-2.55
2019-01-22T17:55:38.985Z,-2.57
2019-01-22T17:58:08.568Z,-2.58
2019-01-22T18:00:39.871Z,-2.58
2019-01-22T18:03:09.618Z,-2.60
2019-01-22T18:05:39.175Z,-2.61
2019-01-22T18:08:09.885Z,-2.63
2019-01-22T18:10:39.563Z,-2.65
2019-01-22T18:13:09.152Z,-2.65
2019-01-22T18:15:38.709Z,-2.64
2019-01-22T18:18:08.358Z,-2.67
2019-01-22T18:20:37.916Z,-2.69
2019-01-22T18:23:07.512Z,-2.69
2019-01-22T18:25:37.209Z,-2.74
2019-01-22T18:28:06.864Z,-2.76
2019-01-22T18:30:36.430Z,-2.77
2019-01-22T18:33:06.085Z,-2.78
2019-01-22T18:35:39.596Z,-2.81
2019-01-22T18:38:09.303Z,-2.81
2019-01-22T18:40:38.874Z,-2.82
2019-01-22T18:43:08.464Z,-2.84
2019-01-22T18:45:38.025Z,-2.86
2019-01-22T18:48:07.684Z,-2.88
2019-01-22T18:50:37.386Z,-2.92
2019-01-22T18:53:07.055Z,-2.94
2019-01-22T18:55:36.601Z,-2.98
2019-01-22T18:58:06.326Z,-2.98
2019-01-22T19:00:35.961Z,-2.97
2019-01-22T19:03:06.075Z,-2.98
2019-01-22T19:05:35.699Z,-3.01
2019-01-22T19:08:05.594Z,-2.99
2019-01-22T19:10:35.341Z,-2.99
2019-01-22T19:13:04.967Z,-3.00
2019-01-22T19:15:34.625Z,-3.01
2019-01-22T19:18:04.346Z,-3.02
2019-01-22T19:20:34.093Z,-3.04
2019-01-22T19:23:03.652Z,-3.04
2019-01-22T19:25:33.305Z,-3.04
2019-01-22T19:28:02.937Z,-3.05
2019-01-22T19:30:33.081Z,-3.08
2019-01-22T19:33:02.648Z,-3.10
2019-01-22T19:35:32.233Z,-3.12
2019-01-22T19:38:01.789Z,-3.16
2019-01-22T19:40:31.368Z,-3.19
2019-01-22T19:43:00.996Z,-3.20
2019-01-22T19:45:33.885Z,-3.21
2019-01-22T19:48:03.442Z,-3.24
2019-01-22T19:50:33.032Z,-3.25
2019-01-22T19:53:02.655Z,-3.26
2019-01-22T19:55:32.301Z,-3.28
2019-01-22T19:58:01.860Z,-3.28
2019-01-22T20:00:34.926Z,-3.33
2019-01-22T20:03:05.792Z,-3.35
2019-01-22T20:05:35.708Z,-3.38
2019-01-22T20:08:06.147Z,-3.42
2019-01-22T20:10:36.009Z,-3.40
2019-01-22T20:13:05.903Z,-3.41
2019-01-22T20:15:35.724Z,-3.44
2019-01-22T20:18:05.718Z,-3.47
2019-01-22T20:20:35.390Z,-3.50
2019-01-22T20:23:05.280Z,-3.50
2019-01-22T20:25:34.870Z,-3.52
2019-01-22T20:28:04.565Z,-3.54
2019-01-22T20:30:36.259Z,-3.56
2019-01-22T20:33:06.054Z,-3.60
2019-01-22T20:35:35.634Z,-3.61
2019-01-22T20:38:05.727Z,-3.63
2019-01-22T20:40:36.976Z,-3.66
2019-01-22T20:43:06.632Z,-3.68
2019-01-22T20:45:36.195Z,-3.70
2019-01-22T20:48:06.090Z,-3.72
2019-01-22T20:50:35.644Z,-3.72
2019-01-22T20:53:05.463Z,-3.74
2019-01-22T20:55:35.094Z,-3.77
2019-01-22T20:58:04.807Z,-3.78
2019-01-22T21:00:34.369Z,-3.82
2019-01-22T21:03:03.951Z,-3.85
2019-01-22T21:05:33.568Z,-3.85
2019-01-22T21:08:03.149Z,-3.86
2019-01-22T21:10:34.403Z,-3.86
2019-01-22T21:13:04.327Z,-3.89
2019-01-22T21:15:34.029Z,-3.89
2019-01-22T21:18:03.730Z,-3.93
2019-01-22T21:20:33.283Z,-3.95
2019-01-22T21:23:02.867Z,-3.96
2019-01-22T21:25:32.429Z,-3.95
2019-01-22T21:28:02.163Z,-3.97
2019-01-22T21:30:35.218Z,-4.01
2019-01-22T21:33:06.472Z,-4.00
2019-01-22T21:35:36.162Z,-4.03
2019-01-22T21:38:06.332Z,-4.06
2019-01-22T21:40:35.989Z,-4.11
2019-01-22T21:43:05.831Z,-4.13
2019-01-22T21:45:35.459Z,-4.16
2019-01-22T21:48:05.584Z,-4.17
2019-01-22T21:50:35.213Z,-4.18
2019-01-22T21:53:05.556Z,-4.21
2019-01-22T21:55:35.187Z,-4.26
2019-01-22T21:58:08.590Z,-4.32
2019-01-22T22:00:36.833Z,-4.33
2019-01-22T22:03:06.421Z,-4.34
2019-01-22T22:05:36.136Z,-4.38
2019-01-22T22:08:05.875Z,-4.40
2019-01-22T22:10:43.596Z,-4.45
2019-01-22T22:13:13.263Z,-4.47
2019-01-22T22:15:42.833Z,-4.55
2019-01-22T22:18:12.408Z,-4.58
2019-01-22T22:20:42.547Z,-4.62
2019-01-22T22:23:12.307Z,-4.64
2019-01-22T22:25:41.932Z,-4.67
2019-01-22T22:28:15.217Z,-4.67
2019-01-22T22:30:42.796Z,-4.71
2019-01-22T22:33:12.354Z,-4.76
2019-01-22T22:35:41.944Z,-4.81
2019-01-22T22:38:11.528Z,-4.82
2019-01-22T22:40:41.114Z,-4.86
2019-01-22T22:43:10.666Z,-4.89
2019-01-22T22:45:40.266Z,-4.92
2019-01-22T22:48:09.809Z,-4.97
2019-01-22T22:50:39.389Z,-5.00
2019-01-22T22:53:08.967Z,-5.05
2019-01-22T22:55:38.579Z,-5.09
2019-01-22T22:58:08.128Z,-5.15
2019-01-22T23:00:46.842Z,-5.17
2019-01-22T23:03:17.163Z,-5.22
2019-01-22T23:05:47.119Z,-5.27
2019-01-22T23:08:16.704Z,-5.32
2019-01-22T23:10:46.548Z,-5.34
2019-01-22T23:13:16.105Z,-5.37
2019-01-22T23:15:45.764Z,-5.39
2019-01-22T23:18:15.425Z,-5.42
2019-01-22T23:20:45.035Z,-5.46
2019-01-22T23:23:14.627Z,-5.48
2019-01-22T23:25:44.233Z,-5.51
2019-01-22T23:28:13.825Z,-5.51
2019-01-22T23:30:43.472Z,-5.57
2019-01-22T23:33:13.026Z,-5.59
2019-01-22T23:35:42.626Z,-5.62
2019-01-22T23:38:12.532Z,-5.66
2019-01-22T23:40:42.135Z,-5.65
2019-01-22T23:43:11.720Z,-5.66
2019-01-22T23:45:41.326Z,-5.69
2019-01-22T23:48:10.912Z,-5.72
2019-01-22T23:50:40.520Z,-5.72
2019-01-22T23:53:10.075Z,-5.72
2019-01-22T23:55:39.683Z,-5.75
2019-01-22T23:58:09.264Z,-5.73
